Time;durP1;ratioP1;P1;durP2;ratioP2;P2;SDS_P1;SDS_P2;PMS_P1;PMS_P2;Temp;Humidity;BMP_temperature;BMP_pressure;BME280_temperature;BME280_humidity;BME280_pressure;Samples;Min_cycle;Max_cycle;Signal;HPM_P1;HPM_P2
2022/07/27 00:01:47;;;;;;;;;4.00;4.00;;;;;;;;5044461;28;8805;-75
2022/07/27 00:04:14;;;;;;;;;3.00;3.00;;;;;;;;5039816;28;8855;-75
2022/07/27 00:06:41;;;;;;;;;4.00;4.00;;;;;;;;5035571;28;8898;-72
2022/07/27 00:09:10;;;;;;;;;4.00;4.00;;;;;;;;5041743;28;8855;-78
2022/07/27 00:11:37;;;;;;;;;5.00;5.00;;;;;;;;5036991;28;8871;-72
2022/07/27 00:14:06;;;;;;;;;3.33;3.33;;;;;;;;5041637;28;8894;-76
2022/07/27 00:16:33;;;;;;;;;3.75;3.50;;;;;;;;5034279;28;8941;-72
2022/07/27 00:19:00;;;;;;;;;5.75;3.75;;;;;;;;5038779;28;8862;-74
2022/07/27 00:21:28;;;;;;;;;5.00;4.33;;;;;;;;5045881;28;8944;-74
2022/07/27 00:23:55;;;;;;;;;3.75;3.75;;;;;;;;5036633;28;9034;-80
2022/07/27 00:26:23;;;;;;;;;3.50;3.50;;;;;;;;5040638;28;8960;-74
2022/07/27 00:28:51;;;;;;;;;4.33;4.33;;;;;;;;5037686;28;8876;-76
2022/07/27 00:31:19;;;;;;;;;4.25;2.75;;;;;;;;5041567;28;8918;-77
2022/07/27 00:33:46;;;;;;;;;5.00;5.00;;;;;;;;5038816;28;8889;-79
2022/07/27 00:36:14;;;;;;;;;4.25;4.25;;;;;;;;5041881;28;8973;-72
2022/07/27 00:38:41;;;;;;;;;5.00;5.00;;;;;;;;5042510;28;9620;-78
2022/07/27 00:41:08;;;;;;;;;4.75;4.25;;;;;;;;5034894;28;8901;-80
2022/07/27 00:43:53;;;;;;;;;4.50;4.50;;;;;;;;5039086;28;8882;-80
2022/07/27 00:46:22;;;;;;;;;4.25;4.25;;;;;;;;5039287;28;8874;-74
2022/07/27 00:48:50;;;;;;;;;5.25;4.00;;;;;;;;5041979;28;8889;-78
2022/07/27 00:51:18;;;;;;;;;4.00;4.00;;;;;;;;5041063;28;8881;-76
2022/07/27 00:53:46;;;;;;;;;3.00;3.00;;;;;;;;5044474;28;8904;-75
2022/07/27 00:56:14;;;;;;;;;3.00;3.00;;;;;;;;5035503;28;8861;-73
2022/07/27 00:58:41;;;;;;;;;3.25;3.25;;;;;;;;5035501;28;8870;-73
2022/07/27 01:01:08;;;;;;;;;4.50;3.00;;;;;;;;5039267;28;8897;-75
2022/07/27 01:03:37;;;;;;;;;3.00;3.00;;;;;;;;5041226;28;8890;-75
2022/07/27 01:06:05;;;;;;;;;3.25;3.25;;;;;;;;5034944;28;8894;-76
2022/07/27 01:08:33;;;;;;;;;4.00;2.50;;;;;;;;5038986;28;8878;-75
2022/07/27 01:11:00;;;;;;;;;2.25;2.25;;;;;;;;5039539;28;8877;-73
2022/07/27 01:13:28;;;;;;;;;4.00;4.00;;;;;;;;5041644;28;9621;-77
2022/07/27 01:15:55;;;;;;;;;3.00;3.00;;;;;;;;5039429;28;8875;-76
2022/07/27 01:18:33;;;;;;;;;2.00;2.00;;;;;;;;5036502;28;8843;-76
2022/07/27 01:21:03;;;;;;;;;4.00;4.00;;;;;;;;5037822;28;8898;-78
2022/07/27 01:23:33;;;;;;;;;7.50;4.00;;;;;;;;5039926;28;8898;-75
2022/07/27 01:26:01;;;;;;;;;4.00;4.00;;;;;;;;5040539;28;8871;-75
2022/07/27 01:28:29;;;;;;;;;2.00;2.00;;;;;;;;5039465;28;8882;-74
2022/07/27 01:30:56;;;;;;;;;4.00;3.00;;;;;;;;5039940;28;8819;-73
2022/07/27 01:33:25;;;;;;;;;3.25;3.25;;;;;;;;5039329;28;8879;-72
2022/07/27 01:35:54;;;;;;;;;3.00;3.00;;;;;;;;5042266;28;8841;-72
2022/07/27 01:38:22;;;;;;;;;1.00;1.00;;;;;;;;5039345;28;8913;-77
2022/07/27 01:40:52;;;;;;;;;2.00;2.00;;;;;;;;5037256;28;9657;-72
2022/07/27 01:43:20;;;;;;;;;3.75;3.75;;;;;;;;5035508;28;8897;-76
2022/07/27 01:45:47;;;;;;;;;2.00;2.00;;;;;;;;5040678;28;8875;-78
2022/07/27 01:48:15;;;;;;;;;5.00;3.00;;;;;;;;5038678;28;8874;-76
2022/07/27 01:50:42;;;;;;;;;2.00;2.00;;;;;;;;5035740;28;8932;-75
2022/07/27 01:53:09;;;;;;;;;4.25;2.00;;;;;;;;5041552;28;8874;-76
2022/07/27 01:55:37;;;;;;;;;3.00;2.50;;;;;;;;5047976;28;8871;-75
2022/07/27 01:58:06;;;;;;;;;1.75;1.75;;;;;;;;5043928;28;8873;-79
2022/07/27 02:00:34;;;;;;;;;2.25;2.25;;;;;;;;5044936;28;8780;-80
2022/07/27 02:03:02;;;;;;;;;3.25;2.00;;;;;;;;5047712;28;8857;-80
2022/07/27 02:05:30;;;;;;;;;3.50;3.00;;;;;;;;5049959;28;8952;-81
2022/07/27 02:07:57;;;;;;;;;3.00;1.75;;;;;;;;5044070;28;9013;-75
2022/07/27 02:10:24;;;;;;;;;2.25;2.25;;;;;;;;5048050;28;8835;-77
2022/07/27 02:12:51;;;;;;;;;2.00;2.00;;;;;;;;5044825;28;8889;-80
2022/07/27 02:15:22;;;;;;;;;3.25;2.00;;;;;;;;5047548;28;8882;-75
2022/07/27 02:17:50;;;;;;;;;1.75;1.50;;;;;;;;5045790;28;8887;-72
2022/07/27 02:20:19;;;;;;;;;2.75;2.75;;;;;;;;5046740;28;8871;-72
2022/07/27 02:22:47;;;;;;;;;1.00;1.00;;;;;;;;5044783;28;8848;-75
2022/07/27 02:25:15;;;;;;;;;1.00;1.00;;;;;;;;5046218;28;8875;-70
2022/07/27 02:27:43;;;;;;;;;2.00;2.00;;;;;;;;5044067;28;9668;-72
2022/07/27 02:30:12;;;;;;;;;2.50;2.00;;;;;;;;5044543;28;8863;-71
2022/07/27 02:32:42;;;;;;;;;1.00;1.00;;;;;;;;5047016;28;8852;-71
2022/07/27 02:35:10;;;;;;;;;1.00;1.00;;;;;;;;5047430;28;8866;-79
2022/07/27 02:37:37;;;;;;;;;2.25;2.25;;;;;;;;5042941;28;8873;-80
2022/07/27 02:40:07;;;;;;;;;1.50;1.50;;;;;;;;5044522;28;8897;-76
2022/07/27 02:42:35;;;;;;;;;3.00;1.50;;;;;;;;5047426;28;8992;-78
2022/07/27 02:45:04;;;;;;;;;2.00;2.00;;;;;;;;5045619;28;9060;-78
2022/07/27 02:47:32;;;;;;;;;1.00;0.00;;;;;;;;5045975;28;9480;-72
2022/07/27 02:50:01;;;;;;;;;1.25;1.25;;;;;;;;5049252;28;8891;-71
2022/07/27 02:52:28;;;;;;;;;3.25;2.00;;;;;;;;5039950;28;8882;-73
2022/07/27 02:54:56;;;;;;;;;3.00;0.00;;;;;;;;5044399;28;8882;-75
2022/07/27 02:57:23;;;;;;;;;1.00;1.00;;;;;;;;5042006;28;9604;-74
2022/07/27 02:59:50;;;;;;;;;1.25;1.25;;;;;;;;5048760;28;8993;-71
2022/07/27 03:02:18;;;;;;;;;1.75;1.75;;;;;;;;5042368;28;8821;-73
2022/07/27 03:04:45;;;;;;;;;2.50;2.50;;;;;;;;5047716;28;8867;-73
2022/07/27 03:07:14;;;;;;;;;4.00;2.75;;;;;;;;5037514;28;8987;-73
2022/07/27 03:09:41;;;;;;;;;2.75;1.00;;;;;;;;5039788;28;8901;-74
2022/07/27 03:12:08;;;;;;;;;1.25;1.25;;;;;;;;5042256;28;8855;-74
2022/07/27 03:14:36;;;;;;;;;1.75;1.75;;;;;;;;5042252;28;8873;-78
2022/07/27 03:17:03;;;;;;;;;2.00;2.00;;;;;;;;5025727;28;8885;-77
2022/07/27 03:19:31;;;;;;;;;2.00;2.00;;;;;;;;5040647;28;8875;-74
2022/07/27 03:21:58;;;;;;;;;1.50;1.50;;;;;;;;5041368;28;8854;-73
2022/07/27 03:24:27;;;;;;;;;2.50;2.50;;;;;;;;5042501;28;8887;-72
2022/07/27 03:26:54;;;;;;;;;2.00;2.00;;;;;;;;5039434;28;8871;-74
2022/07/27 03:29:21;;;;;;;;;1.00;1.00;;;;;;;;5041543;28;8866;-74
2022/07/27 03:31:49;;;;;;;;;1.00;1.00;;;;;;;;5038896;28;8784;-73
2022/07/27 03:34:16;;;;;;;;;2.75;2.75;;;;;;;;5044068;28;9048;-77
2022/07/27 03:36:45;;;;;;;;;1.00;1.00;;;;;;;;5042056;28;8989;-77
2022/07/27 03:39:12;;;;;;;;;1.50;1.00;;;;;;;;5042555;28;8879;-79
2022/07/27 03:41:41;;;;;;;;;2.00;2.00;;;;;;;;5040980;28;8855;-78
2022/07/27 03:44:08;;;;;;;;;1.50;1.50;;;;;;;;5043288;28;8929;-77
2022/07/27 03:46:36;;;;;;;;;2.00;2.00;;;;;;;;5038637;28;8861;-75
2022/07/27 03:49:03;;;;;;;;;1.00;1.00;;;;;;;;5044563;28;8924;-73
2022/07/27 03:51:30;;;;;;;;;2.00;2.00;;;;;;;;5039150;28;8984;-73
2022/07/27 03:53:58;;;;;;;;;3.75;2.00;;;;;;;;5040563;28;8855;-73
2022/07/27 03:56:25;;;;;;;;;1.50;1.00;;;;;;;;5035136;28;8925;-76
2022/07/27 03:58:53;;;;;;;;;2.00;2.00;;;;;;;;5041550;28;8879;-78
2022/07/27 04:01:21;;;;;;;;;3.00;1.25;;;;;;;;5040000;28;8835;-78
2022/07/27 04:03:48;;;;;;;;;3.00;1.00;;;;;;;;5038197;28;9605;-77
2022/07/27 04:06:15;;;;;;;;;1.00;1.00;;;;;;;;5039059;28;8887;-75
2022/07/27 04:08:43;;;;;;;;;1.25;1.25;;;;;;;;5046065;28;8879;-73
2022/07/27 04:11:10;;;;;;;;;0.50;0.00;;;;;;;;5039627;28;8910;-76
2022/07/27 04:13:38;;;;;;;;;2.00;2.00;;;;;;;;5040073;28;9256;-74
2022/07/27 04:16:07;;;;;;;;;1.00;1.00;;;;;;;;5038235;28;8869;-80
2022/07/27 04:18:35;;;;;;;;;1.25;1.00;;;;;;;;5040002;28;8875;-76
2022/07/27 04:21:05;;;;;;;;;1.75;1.75;;;;;;;;5039202;28;8886;-77
2022/07/27 04:23:32;;;;;;;;;2.00;2.00;;;;;;;;5036646;28;9808;-72
2022/07/27 04:26:00;;;;;;;;;1.00;1.00;;;;;;;;5038041;28;8901;-76
2022/07/27 04:28:27;;;;;;;;;0.25;0.25;;;;;;;;5040065;28;8898;-79
2022/07/27 04:30:54;;;;;;;;;0.50;0.50;;;;;;;;5043412;28;8804;-82
2022/07/27 04:33:23;;;;;;;;;2.00;2.00;;;;;;;;5038483;28;8843;-81
2022/07/27 04:35:51;;;;;;;;;2.00;2.00;;;;;;;;5040783;28;8890;-77
2022/07/27 04:38:18;;;;;;;;;1.50;1.50;;;;;;;;5040407;28;8912;-79
2022/07/27 04:40:45;;;;;;;;;3.75;2.00;;;;;;;;5037278;28;8942;-79
2022/07/27 04:43:12;;;;;;;;;1.75;1.00;;;;;;;;5044484;28;8890;-75
2022/07/27 04:45:40;;;;;;;;;1.00;0.75;;;;;;;;5040567;28;8868;-80
2022/07/27 04:48:07;;;;;;;;;1.25;1.25;;;;;;;;5041320;28;8909;-76
2022/07/27 04:50:40;;;;;;;;;1.75;1.75;;;;;;;;5039631;28;9698;-79
2022/07/27 04:53:09;;;;;;;;;1.00;1.00;;;;;;;;5041121;28;8885;-76
2022/07/27 04:55:36;;;;;;;;;1.50;1.00;;;;;;;;5041047;28;8859;-72
2022/07/27 04:58:03;;;;;;;;;0.50;0.50;;;;;;;;5036207;28;9025;-71
2022/07/27 05:00:31;;;;;;;;;1.25;1.25;;;;;;;;5043077;28;8833;-75
2022/07/27 05:02:58;;;;;;;;;2.00;0.00;;;;;;;;5040280;28;8855;-73
2022/07/27 05:05:26;;;;;;;;;2.00;2.00;;;;;;;;5038608;28;8902;-76
2022/07/27 05:07:54;;;;;;;;;1.00;1.00;;;;;;;;5041232;28;8879;-76
2022/07/27 05:10:22;;;;;;;;;1.00;1.00;;;;;;;;5038475;28;8858;-76
2022/07/27 05:12:49;;;;;;;;;1.00;1.00;;;;;;;;5043025;28;9641;-77
2022/07/27 05:15:17;;;;;;;;;0.00;0.00;;;;;;;;5042169;28;8871;-77
2022/07/27 05:17:44;;;;;;;;;2.00;1.00;;;;;;;;5041338;28;8867;-77
2022/07/27 05:20:12;;;;;;;;;1.00;1.00;;;;;;;;5042845;28;8855;-74
2022/07/27 05:22:39;;;;;;;;;1.75;1.75;;;;;;;;5041888;28;8893;-77
2022/07/27 05:25:09;;;;;;;;;1.75;1.75;;;;;;;;5041699;28;8871;-75
2022/07/27 05:27:37;;;;;;;;;1.50;1.50;;;;;;;;5039417;28;9581;-72
2022/07/27 05:30:06;;;;;;;;;2.00;2.00;;;;;;;;5043867;28;9609;-74
2022/07/27 05:32:33;;;;;;;;;2.75;2.75;;;;;;;;5037566;28;8879;-70
2022/07/27 05:35:00;;;;;;;;;1.75;1.00;;;;;;;;5041474;28;8877;-72
2022/07/27 05:37:28;;;;;;;;;1.00;1.00;;;;;;;;5040948;28;8914;-73
2022/07/27 05:39:55;;;;;;;;;2.00;2.00;;;;;;;;5040294;28;8843;-71
2022/07/27 05:42:23;;;;;;;;;1.00;1.00;;;;;;;;5036862;28;8881;-69
2022/07/27 05:44:54;;;;;;;;;1.00;1.00;;;;;;;;5041455;28;8879;-70
2022/07/27 05:47:22;;;;;;;;;1.25;1.25;;;;;;;;5034207;28;8877;-71
2022/07/27 05:49:49;;;;;;;;;3.00;1.25;;;;;;;;5037579;28;8855;-76
2022/07/27 05:52:16;;;;;;;;;1.00;1.00;;;;;;;;5040531;28;8886;-76
2022/07/27 05:54:44;;;;;;;;;2.00;1.25;;;;;;;;5039168;28;8871;-71
2022/07/27 05:57:14;;;;;;;;;2.00;2.00;;;;;;;;5040501;28;8909;-71
2022/07/27 05:59:42;;;;;;;;;2.50;1.75;;;;;;;;5039806;28;8878;-72
2022/07/27 06:02:10;;;;;;;;;1.75;1.75;;;;;;;;5040538;28;8833;-74
2022/07/27 06:04:37;;;;;;;;;2.50;1.00;;;;;;;;5041029;28;8896;-76
2022/07/27 06:09:49;;;;;;;;;1.75;1.75;;;;;;;;5044791;28;8845;-72
2022/07/27 06:12:16;;;;;;;;;2.00;2.00;;;;;;;;5041356;28;8879;-75
2022/07/27 06:14:45;;;;;;;;;1.50;1.50;;;;;;;;5042262;28;8880;-74
2022/07/27 06:17:14;;;;;;;;;2.25;2.25;;;;;;;;5031335;28;8845;-72
2022/07/27 06:19:41;;;;;;;;;2.25;2.00;;;;;;;;5035384;28;8862;-71
2022/07/27 06:22:08;;;;;;;;;1.50;1.50;;;;;;;;5041411;28;8874;-72
2022/07/27 06:24:36;;;;;;;;;2.00;2.00;;;;;;;;5036017;28;8960;-72
2022/07/27 06:27:03;;;;;;;;;3.25;1.75;;;;;;;;5039877;28;8867;-71
2022/07/27 06:29:31;;;;;;;;;2.00;2.00;;;;;;;;5032798;28;8867;-71
2022/07/27 06:31:59;;;;;;;;;3.00;3.00;;;;;;;;5034139;28;8830;-72
2022/07/27 06:34:27;;;;;;;;;1.50;1.50;;;;;;;;5039434;28;9806;-72
2022/07/27 06:36:55;;;;;;;;;2.00;2.00;;;;;;;;5040160;28;8863;-71
2022/07/27 06:39:23;;;;;;;;;1.75;1.75;;;;;;;;5040358;28;8889;-71
2022/07/27 06:41:50;;;;;;;;;3.25;2.00;;;;;;;;5035975;28;8862;-73
2022/07/27 06:44:17;;;;;;;;;3.25;2.00;;;;;;;;5038613;28;8866;-77
2022/07/27 06:46:44;;;;;;;;;2.00;2.00;;;;;;;;5039356;28;9490;-73
2022/07/27 06:49:13;;;;;;;;;4.00;2.25;;;;;;;;5039459;28;8922;-73
2022/07/27 06:51:41;;;;;;;;;1.00;1.00;;;;;;;;5041125;28;8892;-73
2022/07/27 06:54:08;;;;;;;;;3.25;2.00;;;;;;;;5037584;28;8930;-73
2022/07/27 06:56:36;;;;;;;;;2.00;1.50;;;;;;;;5042965;28;8871;-72
2022/07/27 06:59:04;;;;;;;;;3.00;2.00;;;;;;;;5038444;28;8835;-72
2022/07/27 07:01:31;;;;;;;;;2.50;2.50;;;;;;;;5042715;28;8827;-73
2022/07/27 07:03:59;;;;;;;;;1.50;1.00;;;;;;;;5040745;28;8902;-73
2022/07/27 07:06:27;;;;;;;;;2.50;2.50;;;;;;;;5045753;28;8865;-74
2022/07/27 07:08:54;;;;;;;;;2.50;2.25;;;;;;;;5042153;28;8879;-74
2022/07/27 07:11:22;;;;;;;;;2.00;2.00;;;;;;;;5046355;28;8869;-74
2022/07/27 07:13:49;;;;;;;;;3.00;2.00;;;;;;;;5040638;28;8875;-73
2022/07/27 07:16:16;;;;;;;;;1.75;1.75;;;;;;;;5037032;28;8885;-75
2022/07/27 07:18:43;;;;;;;;;3.00;3.00;;;;;;;;5040884;28;8867;-73
2022/07/27 07:21:11;;;;;;;;;2.00;2.00;;;;;;;;5038775;28;8873;-76
2022/07/27 07:23:39;;;;;;;;;3.00;3.00;;;;;;;;5041309;28;8863;-78
2022/07/27 07:26:08;;;;;;;;;2.25;2.25;;;;;;;;5038681;28;8934;-73
2022/07/27 07:28:36;;;;;;;;;3.00;2.00;;;;;;;;5027721;28;8889;-73
2022/07/27 07:31:03;;;;;;;;;2.00;2.00;;;;;;;;5035314;28;8814;-73
2022/07/27 07:33:31;;;;;;;;;2.75;2.75;;;;;;;;5041427;28;8997;-72
2022/07/27 07:35:59;;;;;;;;;3.00;3.00;;;;;;;;5034679;28;9576;-73
2022/07/27 07:38:27;;;;;;;;;2.25;2.25;;;;;;;;5037027;28;8874;-74
2022/07/27 07:40:55;;;;;;;;;2.00;2.00;;;;;;;;5034711;28;8901;-72
2022/07/27 07:43:23;;;;;;;;;2.00;2.00;;;;;;;;5038130;28;8875;-73
2022/07/27 07:45:50;;;;;;;;;2.00;2.00;;;;;;;;5035568;28;8861;-73
2022/07/27 07:48:18;;;;;;;;;1.75;1.75;;;;;;;;5034791;28;8929;-73
2022/07/27 07:50:45;;;;;;;;;2.00;2.00;;;;;;;;5035770;28;8948;-73
2022/07/27 07:53:15;;;;;;;;;2.00;2.00;;;;;;;;5036573;28;8905;-73
2022/07/27 07:55:42;;;;;;;;;3.25;3.25;;;;;;;;5036555;28;9016;-72
2022/07/27 07:58:11;;;;;;;;;1.00;1.00;;;;;;;;5036130;28;8887;-73
2022/07/27 08:00:38;;;;;;;;;1.75;1.75;;;;;;;;5040101;28;8795;-72
2022/07/27 08:03:06;;;;;;;;;1.00;1.00;;;;;;;;5042184;28;8867;-73
2022/07/27 08:05:33;;;;;;;;;2.00;2.00;;;;;;;;5036833;28;8902;-73
2022/07/27 08:08:01;;;;;;;;;2.00;2.00;;;;;;;;5039806;28;8851;-72
2022/07/27 08:10:28;;;;;;;;;1.00;1.00;;;;;;;;5037509;28;8882;-72
2022/07/27 08:12:57;;;;;;;;;1.25;1.25;;;;;;;;5036561;28;8879;-72
2022/07/27 08:15:26;;;;;;;;;4.00;3.00;;;;;;;;5035921;28;8891;-72
2022/07/27 08:17:53;;;;;;;;;2.20;2.20;;;;;;;;5035616;28;8875;-72
2022/07/27 08:20:23;;;;;;;;;1.80;1.80;;;;;;;;5038659;28;8885;-71
2022/07/27 08:22:50;;;;;;;;;3.00;1.00;;;;;;;;5037680;28;8870;-70
2022/07/27 08:25:18;;;;;;;;;1.00;1.00;;;;;;;;5038266;28;9623;-71
2022/07/27 08:27:45;;;;;;;;;2.00;1.00;;;;;;;;5031511;28;8916;-71
2022/07/27 08:30:13;;;;;;;;;1.00;1.00;;;;;;;;5038313;28;8900;-72
2022/07/27 08:32:53;;;;;;;;;0.80;0.80;;;;;;;;5033798;28;8994;-72
2022/07/27 08:35:21;;;;;;;;;1.00;1.00;;;;;;;;5039890;28;8879;-73
2022/07/27 08:37:49;;;;;;;;;1.00;1.00;;;;;;;;5037808;28;8878;-72
2022/07/27 08:40:17;;;;;;;;;1.00;1.00;;;;;;;;5038069;28;8855;-72
2022/07/27 08:42:44;;;;;;;;;2.00;2.00;;;;;;;;5038096;28;8855;-74
2022/07/27 08:45:14;;;;;;;;;1.00;1.00;;;;;;;;5041976;28;9010;-72
2022/07/27 08:47:42;;;;;;;;;1.80;1.60;;;;;;;;5035161;28;8952;-72
2022/07/27 08:50:23;;;;;;;;;1.00;1.00;;;;;;;;5036968;28;8862;-74
2022/07/27 08:52:54;;;;;;;;;3.60;2.00;;;;;;;;5036744;28;8863;-73
2022/07/27 08:55:22;;;;;;;;;1.00;1.00;;;;;;;;5036649;28;8851;-73
2022/07/27 08:57:49;;;;;;;;;1.00;1.00;;;;;;;;5042665;28;8877;-71
2022/07/27 09:00:18;;;;;;;;;0.00;0.00;;;;;;;;5042101;28;8874;-73
2022/07/27 09:02:45;;;;;;;;;1.40;1.40;;;;;;;;5035110;28;8927;-71
2022/07/27 09:05:14;;;;;;;;;1.60;1.60;;;;;;;;5036400;28;8873;-71
2022/07/27 09:07:43;;;;;;;;;3.80;2.40;;;;;;;;5036713;28;8933;-73
2022/07/27 09:10:11;;;;;;;;;2.00;2.00;;;;;;;;5034563;28;8851;-70
2022/07/27 09:12:38;;;;;;;;;1.00;1.00;;;;;;;;5035984;28;8883;-73
2022/07/27 09:15:11;;;;;;;;;1.00;1.00;;;;;;;;5036942;28;8902;-73
2022/07/27 09:17:39;;;;;;;;;2.40;1.00;;;;;;;;5037036;28;8946;-73
2022/07/27 09:20:10;;;;;;;;;1.00;1.00;;;;;;;;5037973;28;8894;-73
2022/07/27 09:22:45;;;;;;;;;1.00;1.00;;;;;;;;5038828;28;8855;-75
2022/07/27 09:25:14;;;;;;;;;1.00;1.00;;;;;;;;5039963;28;8855;-75
2022/07/27 09:27:42;;;;;;;;;1.00;1.00;;;;;;;;5040253;28;8941;-74
2022/07/27 09:30:12;;;;;;;;;1.80;1.20;;;;;;;;5037480;28;9716;-73
2022/07/27 09:32:40;;;;;;;;;1.00;1.00;;;;;;;;5037737;28;8936;-74
2022/07/27 09:35:18;;;;;;;;;0.80;0.80;;;;;;;;5040712;28;8859;-74
2022/07/27 09:37:47;;;;;;;;;0.80;0.80;;;;;;;;5038633;28;8891;-74
2022/07/27 09:40:16;;;;;;;;;0.80;0.80;;;;;;;;5041574;28;8843;-74
2022/07/27 09:42:43;;;;;;;;;1.00;1.00;;;;;;;;5040061;28;8888;-74
2022/07/27 09:45:31;;;;;;;;;0.20;0.20;;;;;;;;5038888;28;8944;-74
2022/07/27 09:48:08;;;;;;;;;0.60;0.60;;;;;;;;5035767;28;8861;-74
2022/07/27 09:50:39;;;;;;;;;1.60;0.60;;;;;;;;5039630;28;8849;-76
2022/07/27 09:53:17;;;;;;;;;1.60;0.00;;;;;;;;5040846;28;8835;-75
2022/07/27 09:55:45;;;;;;;;;0.00;0.00;;;;;;;;5039609;28;8871;-75
2022/07/27 09:58:12;;;;;;;;;0.40;0.40;;;;;;;;5039981;28;8866;-76
2022/07/27 10:00:40;;;;;;;;;0.60;0.60;;;;;;;;5037165;28;8839;-75
2022/07/27 10:03:07;;;;;;;;;0.00;0.00;;;;;;;;5035378;28;8982;-74
2022/07/27 10:05:35;;;;;;;;;0.00;0.00;;;;;;;;5034455;28;8978;-77
2022/07/27 10:08:02;;;;;;;;;0.20;0.20;;;;;;;;5035490;28;8883;-76
2022/07/27 10:10:31;;;;;;;;;1.80;1.80;;;;;;;;5039100;28;9069;-76
2022/07/27 10:12:58;;;;;;;;;0.00;0.00;;;;;;;;5028123;28;8894;-77
2022/07/27 10:15:28;;;;;;;;;1.80;0.80;;;;;;;;5041791;28;9009;-77
2022/07/27 10:18:01;;;;;;;;;1.00;1.00;;;;;;;;5040371;28;8880;-81
2022/07/27 10:20:31;;;;;;;;;0.60;0.60;;;;;;;;5039206;28;8858;-79
2022/07/27 10:22:58;;;;;;;;;0.20;0.20;;;;;;;;5039111;28;8835;-79
2022/07/27 10:25:27;;;;;;;;;0.00;0.00;;;;;;;;5045169;28;8875;-80
2022/07/27 10:28:10;;;;;;;;;0.00;0.00;;;;;;;;5042763;28;8847;-79
2022/07/27 10:30:38;;;;;;;;;0.20;0.20;;;;;;;;5041852;28;8832;-76
2022/07/27 10:33:17;;;;;;;;;0.00;0.00;;;;;;;;5042770;28;8981;-76
2022/07/27 10:35:44;;;;;;;;;1.80;0.00;;;;;;;;5040175;28;8866;-78
2022/07/27 10:38:15;;;;;;;;;0.60;0.60;;;;;;;;5046438;28;8917;-77
2022/07/27 10:40:43;;;;;;;;;0.20;0.20;;;;;;;;5047770;28;8878;-78
2022/07/27 10:43:20;;;;;;;;;0.80;0.80;;;;;;;;5041669;28;9024;-75
2022/07/27 10:45:49;;;;;;;;;0.00;0.00;;;;;;;;5047110;28;8866;-76
2022/07/27 10:48:34;;;;;;;;;2.80;0.80;;;;;;;;5040339;28;8878;-75
2022/07/27 10:51:02;;;;;;;;;0.40;0.20;;;;;;;;5042442;28;8866;-80
2022/07/27 10:53:34;;;;;;;;;2.20;0.00;;;;;;;;5034671;28;8853;-79
2022/07/27 10:56:02;;;;;;;;;0.00;0.00;;;;;;;;5038953;28;8887;-80
2022/07/27 10:58:50;;;;;;;;;0.00;0.00;;;;;;;;5039227;28;8884;-82
2022/07/27 11:01:27;;;;;;;;;0.00;0.00;;;;;;;;5041886;28;8823;-84
2022/07/27 11:03:57;;;;;;;;;0.00;0.00;;;;;;;;5044678;28;9681;-82
2022/07/27 11:06:30;;;;;;;;;0.00;0.00;;;;;;;;5040586;28;8993;-82
2022/07/27 11:08:59;;;;;;;;;0.00;0.00;;;;;;;;5042401;28;8887;-84
2022/07/27 11:11:28;;;;;;;;;0.00;0.00;;;;;;;;5041514;28;9025;-78
2022/07/27 11:13:58;;;;;;;;;0.00;0.00;;;;;;;;5041389;28;8855;-81
2022/07/27 11:16:29;;;;;;;;;0.00;0.00;;;;;;;;5043152;28;8875;-78
2022/07/27 11:19:00;;;;;;;;;0.00;0.00;;;;;;;;5040136;28;8884;-82
2022/07/27 11:21:30;;;;;;;;;0.00;0.00;;;;;;;;5039589;28;8944;-81
2022/07/27 11:23:59;;;;;;;;;0.00;0.00;;;;;;;;5041748;28;8858;-82
2022/07/27 11:29:26;;;;;;;;;1.80;0.40;;;;;;;;5043838;28;8903;-76
2022/07/27 11:31:56;;;;;;;;;0.00;0.00;;;;;;;;5039986;28;8846;-83
2022/07/27 11:34:30;;;;;;;;;0.00;0.00;;;;;;;;5047235;28;8862;-82
2022/07/27 11:37:00;;;;;;;;;0.00;0.00;;;;;;;;5039874;28;8877;-82
2022/07/27 11:39:29;;;;;;;;;0.00;0.00;;;;;;;;5043544;28;8893;-83
2022/07/27 11:41:58;;;;;;;;;0.00;0.00;;;;;;;;5042397;28;8842;-83
2022/07/27 11:44:29;;;;;;;;;0.00;0.00;;;;;;;;5043915;28;8902;-83
2022/07/27 11:47:01;;;;;;;;;0.00;0.00;;;;;;;;5041411;28;8889;-84
2022/07/27 11:49:30;;;;;;;;;0.00;0.00;;;;;;;;5042612;28;8865;-82
2022/07/27 11:51:59;;;;;;;;;0.00;0.00;;;;;;;;5043239;28;8900;-81
2022/07/27 11:54:29;;;;;;;;;0.00;0.00;;;;;;;;5043560;28;8855;-83
2022/07/27 11:56:58;;;;;;;;;0.00;0.00;;;;;;;;5041479;28;8881;-83
2022/07/27 11:59:31;;;;;;;;;1.00;0.00;;;;;;;;5043340;28;8855;-78
2022/07/27 12:01:59;;;;;;;;;1.00;0.00;;;;;;;;5039524;28;8850;-81
2022/07/27 12:04:29;;;;;;;;;0.00;0.00;;;;;;;;5043185;28;8871;-78
2022/07/27 12:07:06;;;;;;;;;0.00;0.00;;;;;;;;5040384;28;8869;-83
2022/07/27 12:09:37;;;;;;;;;0.00;0.00;;;;;;;;5041690;28;8913;-84
2022/07/27 12:12:11;;;;;;;;;0.00;0.00;;;;;;;;5043591;28;9696;-81
2022/07/27 12:14:44;;;;;;;;;0.00;0.00;;;;;;;;5041994;28;8875;-78
2022/07/27 12:17:15;;;;;;;;;0.00;0.00;;;;;;;;5037591;28;8859;-83
2022/07/27 12:19:43;;;;;;;;;0.00;0.00;;;;;;;;5040897;28;8891;-79
2022/07/27 12:22:15;;;;;;;;;0.00;0.00;;;;;;;;5042876;28;8897;-77
2022/07/27 12:24:44;;;;;;;;;0.00;0.00;;;;;;;;5042087;28;8990;-84
2022/07/27 12:27:15;;;;;;;;;0.00;0.00;;;;;;;;5043327;28;8887;-84
2022/07/27 12:29:58;;;;;;;;;0.00;0.00;;;;;;;;5040473;28;8914;-79
2022/07/27 12:32:31;;;;;;;;;0.00;0.00;;;;;;;;5041290;28;8929;-82
2022/07/27 12:34:59;;;;;;;;;0.00;0.00;;;;;;;;5042183;28;8855;-83
2022/07/27 12:37:31;;;;;;;;;0.00;0.00;;;;;;;;5037564;28;8894;-84
2022/07/27 12:39:59;;;;;;;;;0.00;0.00;;;;;;;;5041343;28;8895;-84
2022/07/27 12:42:35;;;;;;;;;0.00;0.00;;;;;;;;5044163;28;9776;-82
2022/07/27 12:45:15;;;;;;;;;0.00;0.00;;;;;;;;5042249;28;8963;-81
2022/07/27 12:47:42;;;;;;;;;0.00;0.00;;;;;;;;5038894;28;8879;-84
2022/07/27 12:50:12;;;;;;;;;0.00;0.00;;;;;;;;5043260;28;8871;-82
2022/07/27 12:52:43;;;;;;;;;0.00;0.00;;;;;;;;5042194;28;8859;-80
2022/07/27 12:55:11;;;;;;;;;0.00;0.00;;;;;;;;5040804;28;8961;-84
2022/07/27 12:57:39;;;;;;;;;0.00;0.00;;;;;;;;5042306;28;8984;-84
2022/07/27 13:00:08;;;;;;;;;0.00;0.00;;;;;;;;5042037;28;8871;-85
2022/07/27 13:02:39;;;;;;;;;0.00;0.00;;;;;;;;5040977;28;8859;-83
2022/07/27 13:05:08;;;;;;;;;0.00;0.00;;;;;;;;5044546;28;8936;-83
2022/07/27 13:07:35;;;;;;;;;0.00;0.00;;;;;;;;5036857;28;8870;-84
2022/07/27 13:10:03;;;;;;;;;0.00;0.00;;;;;;;;5043480;28;8843;-82
2022/07/27 13:12:31;;;;;;;;;0.00;0.00;;;;;;;;5040837;28;8987;-82
2022/07/27 13:15:01;;;;;;;;;0.40;0.00;;;;;;;;5039986;28;9011;-81
2022/07/27 13:17:44;;;;;;;;;1.00;0.00;;;;;;;;5038253;28;8871;-81
2022/07/27 13:20:12;;;;;;;;;0.00;0.00;;;;;;;;5038307;28;8875;-82
2022/07/27 13:22:44;;;;;;;;;0.00;0.00;;;;;;;;5044398;28;8887;-84
2022/07/27 13:25:12;;;;;;;;;0.00;0.00;;;;;;;;5044107;28;8866;-85
2022/07/27 13:27:42;;;;;;;;;0.00;0.00;;;;;;;;5042439;28;8874;-82
2022/07/27 13:30:12;;;;;;;;;0.00;0.00;;;;;;;;5030891;28;8923;-83
2022/07/27 13:32:39;;;;;;;;;0.00;0.00;;;;;;;;5043458;28;8868;-84
2022/07/27 13:35:11;;;;;;;;;0.00;0.00;;;;;;;;5040931;28;8902;-82
2022/07/27 13:37:39;;;;;;;;;0.00;0.00;;;;;;;;5042964;28;8871;-85
2022/07/27 13:40:08;;;;;;;;;0.00;0.00;;;;;;;;5042656;28;8892;-86
2022/07/27 13:42:37;;;;;;;;;0.00;0.00;;;;;;;;5042101;28;8863;-91
2022/07/27 13:45:05;;;;;;;;;0.00;0.00;;;;;;;;5040365;28;9072;-87
2022/07/27 13:47:33;;;;;;;;;0.80;0.00;;;;;;;;5038405;28;8871;-85
2022/07/27 13:50:00;;;;;;;;;0.00;0.00;;;;;;;;5047574;28;8879;-85
2022/07/27 13:52:29;;;;;;;;;0.00;0.00;;;;;;;;5021938;28;8878;-84
2022/07/27 13:54:57;;;;;;;;;0.00;0.00;;;;;;;;5039292;28;8870;-82
2022/07/27 13:57:24;;;;;;;;;0.00;0.00;;;;;;;;5038793;28;8886;-81
2022/07/27 13:59:51;;;;;;;;;0.00;0.00;;;;;;;;5038273;28;8887;-84
2022/07/27 14:02:19;;;;;;;;;0.00;0.00;;;;;;;;5038723;28;8811;-83
2022/07/27 14:04:47;;;;;;;;;0.00;0.00;;;;;;;;5038725;28;8883;-83
2022/07/27 14:07:14;;;;;;;;;0.40;0.00;;;;;;;;5042794;28;8855;-84
2022/07/27 14:12:28;;;;;;;;;0.00;0.00;;;;;;;;5040080;28;8859;-81
2022/07/27 14:14:56;;;;;;;;;0.00;0.00;;;;;;;;5037749;28;8871;-86
2022/07/27 14:17:23;;;;;;;;;0.00;0.00;;;;;;;;5034639;28;9030;-79
2022/07/27 14:19:50;;;;;;;;;0.00;0.00;;;;;;;;5035785;28;8894;-84
2022/07/27 14:22:17;;;;;;;;;0.00;0.00;;;;;;;;5037529;28;8874;-83
2022/07/27 14:24:46;;;;;;;;;0.00;0.00;;;;;;;;5037208;28;8888;-82
2022/07/27 14:27:14;;;;;;;;;0.00;0.00;;;;;;;;5034481;28;8893;-78
2022/07/27 14:29:41;;;;;;;;;0.00;0.00;;;;;;;;5035135;28;9511;-82
2022/07/27 14:32:08;;;;;;;;;0.00;0.00;;;;;;;;5033819;28;8843;-82
2022/07/27 14:34:36;;;;;;;;;0.00;0.00;;;;;;;;5036133;28;8862;-82
2022/07/27 14:37:03;;;;;;;;;0.00;0.00;;;;;;;;5034289;28;9647;-81
2022/07/27 14:39:31;;;;;;;;;0.00;0.00;;;;;;;;5028688;28;8872;-84
2022/07/27 14:42:00;;;;;;;;;0.00;0.00;;;;;;;;5033990;28;8889;-85
2022/07/27 14:44:27;;;;;;;;;0.00;0.00;;;;;;;;5032831;28;9375;-85
2022/07/27 14:46:54;;;;;;;;;0.00;0.00;;;;;;;;5034281;28;8921;-85
2022/07/27 14:49:23;;;;;;;;;0.00;0.00;;;;;;;;5036333;28;8899;-79
2022/07/27 14:51:50;;;;;;;;;0.00;0.00;;;;;;;;5038631;28;8886;-82
2022/07/27 14:54:18;;;;;;;;;0.00;0.00;;;;;;;;5034409;28;9723;-82
2022/07/27 14:56:47;;;;;;;;;0.00;0.00;;;;;;;;5032805;28;8886;-81
2022/07/27 14:59:15;;;;;;;;;0.00;0.00;;;;;;;;5040613;28;9714;-83
2022/07/27 15:01:44;;;;;;;;;0.40;0.00;;;;;;;;5041574;28;8823;-81
2022/07/27 15:04:11;;;;;;;;;0.00;0.00;;;;;;;;5046814;28;8963;-82
2022/07/27 15:06:39;;;;;;;;;0.00;0.00;;;;;;;;5040806;28;8867;-81
2022/07/27 15:09:06;;;;;;;;;0.00;0.00;;;;;;;;5044459;28;8862;-82
2022/07/27 15:11:33;;;;;;;;;0.00;0.00;;;;;;;;5044003;28;8956;-83
2022/07/27 15:14:02;;;;;;;;;0.00;0.00;;;;;;;;5046863;28;8866;-83
2022/07/27 15:16:30;;;;;;;;;0.00;0.00;;;;;;;;5043585;28;8859;-77